sensor_id;sensor_type;location;lat;lon;timestamp;temperature;humidity
32865;DHT22;19219;44.500;11.188;2023-06-26T00:02:20;20.20;99.90
32865;DHT22;19219;44.500;11.188;2023-06-26T00:04:45;20.20;99.90
32865;DHT22;19219;44.500;11.188;2023-06-26T00:07:11;20.10;99.90
32865;DHT22;19219;44.500;11.188;2023-06-26T00:09:37;20.10;99.90
32865;DHT22;19219;44.500;11.188;2023-06-26T00:12:03;20.10;99.90
32865;DHT22;19219;44.500;11.188;2023-06-26T00:14:29;20.20;99.90
32865;DHT22;19219;44.500;11.188;2023-06-26T00:16:54;20.20;99.90
32865;DHT22;19219;44.500;11.188;2023-06-26T00:19:20;20.20;99.90
32865;DHT22;19219;44.500;11.188;2023-06-26T00:21:46;20.10;99.90
32865;DHT22;19219;44.500;11.188;2023-06-26T00:24:15;20.00;99.90
32865;DHT22;19219;44.500;11.188;2023-06-26T00:26:41;19.90;99.90
32865;DHT22;19219;44.500;11.188;2023-06-26T00:29:07;19.80;99.90
32865;DHT22;19219;44.500;11.188;2023-06-26T00:31:32;19.90;99.90
32865;DHT22;19219;44.500;11.188;2023-06-26T00:33:58;19.90;99.90
32865;DHT22;19219;44.500;11.188;2023-06-26T00:36:24;19.90;99.90
32865;DHT22;19219;44.500;11.188;2023-06-26T00:38:51;19.80;99.90
32865;DHT22;19219;44.500;11.188;2023-06-26T00:41:17;19.80;99.90
32865;DHT22;19219;44.500;11.188;2023-06-26T00:43:43;19.70;99.90
32865;DHT22;19219;44.500;11.188;2023-06-26T00:46:10;19.60;99.90
32865;DHT22;19219;44.500;11.188;2023-06-26T00:48:38;19.50;99.90
32865;DHT22;19219;44.500;11.188;2023-06-26T00:51:04;19.50;99.90
32865;DHT22;19219;44.500;11.188;2023-06-26T00:53:31;19.50;99.90
32865;DHT22;19219;44.500;11.188;2023-06-26T00:55:56;19.40;99.90
32865;DHT22;19219;44.500;11.188;2023-06-26T00:58:24;19.30;99.90
32865;DHT22;19219;44.500;11.188;2023-06-26T01:00:53;19.40;99.90
32865;DHT22;19219;44.500;11.188;2023-06-26T01:03:20;19.40;99.90
32865;DHT22;19219;44.500;11.188;2023-06-26T01:05:47;19.40;99.90
32865;DHT22;19219;44.500;11.188;2023-06-26T01:08:15;19.40;99.90
32865;DHT22;19219;44.500;11.188;2023-06-26T01:10:41;19.40;99.90
32865;DHT22;19219;44.500;11.188;2023-06-26T01:13:08;19.40;99.90
32865;DHT22;19219;44.500;11.188;2023-06-26T01:15:34;19.40;99.90
32865;DHT22;19219;44.500;11.188;2023-06-26T01:18:00;19.30;99.90
32865;DHT22;19219;44.500;11.188;2023-06-26T01:20:36;19.20;99.90
32865;DHT22;19219;44.500;11.188;2023-06-26T01:23:22;19.20;99.90
32865;DHT22;19219;44.500;11.188;2023-06-26T01:26:19;19.20;99.90
32865;DHT22;19219;44.500;11.188;2023-06-26T01:28:46;19.20;99.90
32865;DHT22;19219;44.500;11.188;2023-06-26T01:31:12;19.10;99.90
32865;DHT22;19219;44.500;11.188;2023-06-26T01:33:40;19.00;99.90
32865;DHT22;19219;44.500;11.188;2023-06-26T01:36:07;19.00;99.90
32865;DHT22;19219;44.500;11.188;2023-06-26T01:38:33;19.00;99.90
32865;DHT22;19219;44.500;11.188;2023-06-26T01:41:00;18.90;99.90
32865;DHT22;19219;44.500;11.188;2023-06-26T01:43:46;19.00;99.90
32865;DHT22;19219;44.500;11.188;2023-06-26T01:46:30;19.00;99.90
32865;DHT22;19219;44.500;11.188;2023-06-26T01:49:42;19.10;99.90
32865;DHT22;19219;44.500;11.188;2023-06-26T01:52:12;19.20;99.90
32865;DHT22;19219;44.500;11.188;2023-06-26T01:54:52;19.10;99.90
32865;DHT22;19219;44.500;11.188;2023-06-26T01:57:20;19.10;99.90
32865;DHT22;19219;44.500;11.188;2023-06-26T01:59:48;19.10;99.90
32865;DHT22;19219;44.500;11.188;2023-06-26T02:02:14;19.00;99.90
32865;DHT22;19219;44.500;11.188;2023-06-26T02:04:40;18.90;99.90
32865;DHT22;19219;44.500;11.188;2023-06-26T02:07:06;18.90;99.90
32865;DHT22;19219;44.500;11.188;2023-06-26T02:09:32;18.80;99.90
32865;DHT22;19219;44.500;11.188;2023-06-26T02:11:57;18.90;99.90
32865;DHT22;19219;44.500;11.188;2023-06-26T02:14:23;18.90;99.90
32865;DHT22;19219;44.500;11.188;2023-06-26T02:16:49;18.80;99.90
32865;DHT22;19219;44.500;11.188;2023-06-26T02:19:15;18.80;99.90
32865;DHT22;19219;44.500;11.188;2023-06-26T02:21:50;18.80;99.90
32865;DHT22;19219;44.500;11.188;2023-06-26T02:24:16;18.70;99.90
32865;DHT22;19219;44.500;11.188;2023-06-26T02:26:42;18.70;99.90
32865;DHT22;19219;44.500;11.188;2023-06-26T02:29:07;18.70;99.90
32865;DHT22;19219;44.500;11.188;2023-06-26T02:31:33;18.60;99.90
32865;DHT22;19219;44.500;11.188;2023-06-26T02:33:59;18.60;99.90
32865;DHT22;19219;44.500;11.188;2023-06-26T02:36:24;18.60;99.90
32865;DHT22;19219;44.500;11.188;2023-06-26T02:38:50;18.50;99.90
32865;DHT22;19219;44.500;11.188;2023-06-26T02:41:15;18.50;99.90
32865;DHT22;19219;44.500;11.188;2023-06-26T02:43:41;18.40;99.90
32865;DHT22;19219;44.500;11.188;2023-06-26T02:46:07;18.40;99.90
32865;DHT22;19219;44.500;11.188;2023-06-26T02:48:32;18.40;99.90
32865;DHT22;19219;44.500;11.188;2023-06-26T02:50:58;18.30;99.90
32865;DHT22;19219;44.500;11.188;2023-06-26T02:53:24;18.30;99.90
32865;DHT22;19219;44.500;11.188;2023-06-26T02:55:50;18.30;99.90
32865;DHT22;19219;44.500;11.188;2023-06-26T02:58:16;18.30;99.90
32865;DHT22;19219;44.500;11.188;2023-06-26T03:00:41;18.40;99.90
32865;DHT22;19219;44.500;11.188;2023-06-26T03:03:09;18.40;99.90
32865;DHT22;19219;44.500;11.188;2023-06-26T03:05:35;18.40;99.90
32865;DHT22;19219;44.500;11.188;2023-06-26T03:08:02;18.40;99.90
32865;DHT22;19219;44.500;11.188;2023-06-26T03:10:28;18.30;99.90
32865;DHT22;19219;44.500;11.188;2023-06-26T03:12:54;18.30;99.90
32865;DHT22;19219;44.500;11.188;2023-06-26T03:15:19;18.30;99.90
32865;DHT22;19219;44.500;11.188;2023-06-26T03:17:45;18.30;99.90
32865;DHT22;19219;44.500;11.188;2023-06-26T03:20:11;18.30;99.90
32865;DHT22;19219;44.500;11.188;2023-06-26T03:22:36;18.30;99.90
32865;DHT22;19219;44.500;11.188;2023-06-26T03:25:03;18.10;99.90
32865;DHT22;19219;44.500;11.188;2023-06-26T03:27:28;18.00;99.90
32865;DHT22;19219;44.500;11.188;2023-06-26T03:29:54;18.00;99.90
32865;DHT22;19219;44.500;11.188;2023-06-26T03:32:20;18.00;99.90
32865;DHT22;19219;44.500;11.188;2023-06-26T03:34:45;18.10;99.90
32865;DHT22;19219;44.500;11.188;2023-06-26T03:37:11;18.20;99.90
32865;DHT22;19219;44.500;11.188;2023-06-26T03:39:37;18.20;99.90
32865;DHT22;19219;44.500;11.188;2023-06-26T03:42:03;18.30;99.90
32865;DHT22;19219;44.500;11.188;2023-06-26T03:44:28;18.20;99.90
32865;DHT22;19219;44.500;11.188;2023-06-26T03:46:54;18.20;99.90
32865;DHT22;19219;44.500;11.188;2023-06-26T03:49:20;18.20;99.90
32865;DHT22;19219;44.500;11.188;2023-06-26T03:51:45;18.20;99.90
32865;DHT22;19219;44.500;11.188;2023-06-26T03:54:11;18.20;99.90
32865;DHT22;19219;44.500;11.188;2023-06-26T03:56:37;18.20;99.90
32865;DHT22;19219;44.500;11.188;2023-06-26T03:59:02;18.10;99.90
32865;DHT22;19219;44.500;11.188;2023-06-26T04:01:28;18.10;99.90
32865;DHT22;19219;44.500;11.188;2023-06-26T04:03:54;18.20;99.90
32865;DHT22;19219;44.500;11.188;2023-06-26T04:06:20;18.20;99.90
32865;DHT22;19219;44.500;11.188;2023-06-26T04:08:46;18.30;99.90
32865;DHT22;19219;44.500;11.188;2023-06-26T04:11:11;18.30;99.90
32865;DHT22;19219;44.500;11.188;2023-06-26T04:13:37;18.20;99.90
32865;DHT22;19219;44.500;11.188;2023-06-26T04:16:03;18.10;99.90
32865;DHT22;19219;44.500;11.188;2023-06-26T04:18:29;18.10;99.90
32865;DHT22;19219;44.500;11.188;2023-06-26T04:23:33;18.10;99.90
32865;DHT22;19219;44.500;11.188;2023-06-26T04:25:59;18.10;99.90
32865;DHT22;19219;44.500;11.188;2023-06-26T04:28:25;18.20;99.90
32865;DHT22;19219;44.500;11.188;2023-06-26T04:30:51;18.30;99.90
32865;DHT22;19219;44.500;11.188;2023-06-26T04:33:16;18.40;99.90
32865;DHT22;19219;44.500;11.188;2023-06-26T04:35:42;18.40;99.90
32865;DHT22;19219;44.500;11.188;2023-06-26T04:38:10;18.50;99.90
32865;DHT22;19219;44.500;11.188;2023-06-26T04:40:36;18.70;99.90
32865;DHT22;19219;44.500;11.188;2023-06-26T04:43:03;18.70;99.90
32865;DHT22;19219;44.500;11.188;2023-06-26T04:45:29;18.80;99.90
32865;DHT22;19219;44.500;11.188;2023-06-26T04:47:54;18.90;99.90
32865;DHT22;19219;44.500;11.188;2023-06-26T04:50:21;19.00;99.90
32865;DHT22;19219;44.500;11.188;2023-06-26T04:52:47;19.20;99.90
32865;DHT22;19219;44.500;11.188;2023-06-26T04:55:13;19.30;99.90
32865;DHT22;19219;44.500;11.188;2023-06-26T04:57:38;19.40;99.90
32865;DHT22;19219;44.500;11.188;2023-06-26T05:00:04;19.60;99.90
32865;DHT22;19219;44.500;11.188;2023-06-26T05:02:36;19.80;99.90
32865;DHT22;19219;44.500;11.188;2023-06-26T05:05:02;20.10;99.90
32865;DHT22;19219;44.500;11.188;2023-06-26T05:07:28;20.30;99.90
32865;DHT22;19219;44.500;11.188;2023-06-26T05:09:54;20.60;99.90
32865;DHT22;19219;44.500;11.188;2023-06-26T05:12:19;21.00;99.90
32865;DHT22;19219;44.500;11.188;2023-06-26T05:14:45;21.40;99.90
32865;DHT22;19219;44.500;11.188;2023-06-26T05:17:13;21.80;99.90
32865;DHT22;19219;44.500;11.188;2023-06-26T05:19:38;22.00;99.90
32865;DHT22;19219;44.500;11.188;2023-06-26T05:22:04;22.40;99.90
32865;DHT22;19219;44.500;11.188;2023-06-26T05:24:34;22.70;99.90
32865;DHT22;19219;44.500;11.188;2023-06-26T05:27:01;23.10;99.90
32865;DHT22;19219;44.500;11.188;2023-06-26T05:29:27;23.40;99.90
32865;DHT22;19219;44.500;11.188;2023-06-26T05:31:53;23.60;99.90
32865;DHT22;19219;44.500;11.188;2023-06-26T05:34:22;24.00;99.90
32865;DHT22;19219;44.500;11.188;2023-06-26T05:36:50;24.30;99.90
32865;DHT22;19219;44.500;11.188;2023-06-26T05:39:17;24.60;99.90
32865;DHT22;19219;44.500;11.188;2023-06-26T05:41:46;25.00;99.90
32865;DHT22;19219;44.500;11.188;2023-06-26T05:44:12;25.50;99.90
32865;DHT22;19219;44.500;11.188;2023-06-26T05:46:38;26.00;99.90
32865;DHT22;19219;44.500;11.188;2023-06-26T05:49:03;26.30;99.90
32865;DHT22;19219;44.500;11.188;2023-06-26T05:51:29;26.80;99.90
32865;DHT22;19219;44.500;11.188;2023-06-26T05:53:55;27.20;99.90
32865;DHT22;19219;44.500;11.188;2023-06-26T05:56:21;27.60;99.90
32865;DHT22;19219;44.500;11.188;2023-06-26T05:58:47;28.10;99.90
32865;DHT22;19219;44.500;11.188;2023-06-26T06:01:13;28.50;99.90
32865;DHT22;19219;44.500;11.188;2023-06-26T06:03:39;28.80;99.90
32865;DHT22;19219;44.500;11.188;2023-06-26T06:06:05;29.30;99.90
32865;DHT22;19219;44.500;11.188;2023-06-26T06:08:31;29.80;99.90
32865;DHT22;19219;44.500;11.188;2023-06-26T06:10:59;30.30;99.90
32865;DHT22;19219;44.500;11.188;2023-06-26T06:13:25;31.10;99.90
32865;DHT22;19219;44.500;11.188;2023-06-26T06:15:50;32.00;99.90
32865;DHT22;19219;44.500;11.188;2023-06-26T06:18:16;32.60;99.90
32865;DHT22;19219;44.500;11.188;2023-06-26T06:20:42;32.10;99.30
32865;DHT22;19219;44.500;11.188;2023-06-26T06:23:07;31.40;99.90
32865;DHT22;19219;44.500;11.188;2023-06-26T06:25:33;30.40;99.90
32865;DHT22;19219;44.500;11.188;2023-06-26T06:27:59;29.40;99.90
32865;DHT22;19219;44.500;11.188;2023-06-26T06:30:24;28.50;99.90
32865;DHT22;19219;44.500;11.188;2023-06-26T06:32:50;28.20;99.90
32865;DHT22;19219;44.500;11.188;2023-06-26T06:35:18;28.20;99.90
32865;DHT22;19219;44.500;11.188;2023-06-26T06:37:44;28.80;99.90
32865;DHT22;19219;44.500;11.188;2023-06-26T06:40:10;29.50;99.90
32865;DHT22;19219;44.500;11.188;2023-06-26T06:42:36;29.90;99.90
32865;DHT22;19219;44.500;11.188;2023-06-26T06:45:03;30.30;99.90
32865;DHT22;19219;44.500;11.188;2023-06-26T06:47:29;30.50;99.90
32865;DHT22;19219;44.500;11.188;2023-06-26T06:49:55;30.40;99.90
32865;DHT22;19219;44.500;11.188;2023-06-26T06:52:21;30.60;99.90
32865;DHT22;19219;44.500;11.188;2023-06-26T06:54:56;30.50;99.90
32865;DHT22;19219;44.500;11.188;2023-06-26T06:57:24;30.30;99.90
32865;DHT22;19219;44.500;11.188;2023-06-26T06:59:50;30.20;99.90
32865;DHT22;19219;44.500;11.188;2023-06-26T07:02:19;30.20;99.90
32865;DHT22;19219;44.500;11.188;2023-06-26T07:04:45;30.50;99.90
32865;DHT22;19219;44.500;11.188;2023-06-26T07:07:12;30.40;99.90
32865;DHT22;19219;44.500;11.188;2023-06-26T07:09:41;30.60;99.90
32865;DHT22;19219;44.500;11.188;2023-06-26T07:12:07;30.70;99.90
32865;DHT22;19219;44.500;11.188;2023-06-26T07:14:33;31.10;99.90
32865;DHT22;19219;44.500;11.188;2023-06-26T07:16:58;30.80;99.90
32865;DHT22;19219;44.500;11.188;2023-06-26T07:19:24;30.60;99.90
32865;DHT22;19219;44.500;11.188;2023-06-26T07:21:49;30.60;99.90
32865;DHT22;19219;44.500;11.188;2023-06-26T07:24:15;31.00;99.90
32865;DHT22;19219;44.500;11.188;2023-06-26T07:26:41;31.20;99.90
32865;DHT22;19219;44.500;11.188;2023-06-26T07:29:06;31.30;99.90
32865;DHT22;19219;44.500;11.188;2023-06-26T07:31:32;31.60;99.60
32865;DHT22;19219;44.500;11.188;2023-06-26T07:33:57;31.90;99.40
32865;DHT22;19219;44.500;11.188;2023-06-26T07:36:23;32.20;98.40
32865;DHT22;19219;44.500;11.188;2023-06-26T07:38:49;32.00;98.00
32865;DHT22;19219;44.500;11.188;2023-06-26T07:41:14;32.00;98.30
32865;DHT22;19219;44.500;11.188;2023-06-26T07:43:40;31.40;98.90
32865;DHT22;19219;44.500;11.188;2023-06-26T07:46:05;31.00;99.20
32865;DHT22;19219;44.500;11.188;2023-06-26T07:48:31;31.00;99.80
32865;DHT22;19219;44.500;11.188;2023-06-26T07:50:57;31.00;99.60
32865;DHT22;19219;44.500;11.188;2023-06-26T07:53:22;30.90;99.80
32865;DHT22;19219;44.500;11.188;2023-06-26T07:55:48;30.70;99.70
32865;DHT22;19219;44.500;11.188;2023-06-26T07:58:14;31.20;99.90
32865;DHT22;19219;44.500;11.188;2023-06-26T08:00:40;31.40;98.60
32865;DHT22;19219;44.500;11.188;2023-06-26T08:03:06;31.60;98.20
32865;DHT22;19219;44.500;11.188;2023-06-26T08:05:32;31.80;98.10
32865;DHT22;19219;44.500;11.188;2023-06-26T08:07:58;32.30;98.80
32865;DHT22;19219;44.500;11.188;2023-06-26T08:10:23;32.50;97.80
32865;DHT22;19219;44.500;11.188;2023-06-26T08:12:49;32.70;96.90
32865;DHT22;19219;44.500;11.188;2023-06-26T08:15:16;32.90;96.00
32865;DHT22;19219;44.500;11.188;2023-06-26T08:17:41;33.10;95.60
32865;DHT22;19219;44.500;11.188;2023-06-26T08:20:07;33.50;94.80
32865;DHT22;19219;44.500;11.188;2023-06-26T08:22:33;33.20;94.90
32865;DHT22;19219;44.500;11.188;2023-06-26T08:24:59;33.10;94.80
32865;DHT22;19219;44.500;11.188;2023-06-26T08:27:26;33.10;95.40
32865;DHT22;19219;44.500;11.188;2023-06-26T08:29:52;33.00;94.90
32865;DHT22;19219;44.500;11.188;2023-06-26T08:32:18;33.20;96.10
32865;DHT22;19219;44.500;11.188;2023-06-26T08:34:44;33.00;94.90
32865;DHT22;19219;44.500;11.188;2023-06-26T08:37:09;32.80;96.40
32865;DHT22;19219;44.500;11.188;2023-06-26T08:39:35;32.80;94.60
32865;DHT22;19219;44.500;11.188;2023-06-26T08:42:01;33.00;94.90
32865;DHT22;19219;44.500;11.188;2023-06-26T08:44:26;33.00;94.20
32865;DHT22;19219;44.500;11.188;2023-06-26T08:46:52;33.10;93.10
32865;DHT22;19219;44.500;11.188;2023-06-26T08:49:24;33.10;92.30
32865;DHT22;19219;44.500;11.188;2023-06-26T08:52:06;33.10;91.50
32865;DHT22;19219;44.500;11.188;2023-06-26T08:54:38;33.00;91.20
32865;DHT22;19219;44.500;11.188;2023-06-26T08:57:06;32.90;91.60
32865;DHT22;19219;44.500;11.188;2023-06-26T08:59:32;33.00;92.20
32865;DHT22;19219;44.500;11.188;2023-06-26T09:01:58;32.90;91.20
32865;DHT22;19219;44.500;11.188;2023-06-26T09:04:24;32.50;90.80
32865;DHT22;19219;44.500;11.188;2023-06-26T09:06:50;32.60;91.10
32865;DHT22;19219;44.500;11.188;2023-06-26T09:09:16;32.60;91.20
32865;DHT22;19219;44.500;11.188;2023-06-26T09:11:43;32.80;93.00
32865;DHT22;19219;44.500;11.188;2023-06-26T09:14:09;32.90;92.20
32865;DHT22;19219;44.500;11.188;2023-06-26T09:16:40;33.10;92.00
32865;DHT22;19219;44.500;11.188;2023-06-26T09:19:10;33.30;92.10
32865;DHT22;19219;44.500;11.188;2023-06-26T09:21:41;33.30;91.30
32865;DHT22;19219;44.500;11.188;2023-06-26T09:24:07;33.50;90.60
32865;DHT22;19219;44.500;11.188;2023-06-26T09:26:36;33.40;90.50
32865;DHT22;19219;44.500;11.188;2023-06-26T09:29:03;33.00;90.60
32865;DHT22;19219;44.500;11.188;2023-06-26T09:31:29;32.60;89.80
32865;DHT22;19219;44.500;11.188;2023-06-26T09:33:59;32.90;90.70
32865;DHT22;19219;44.500;11.188;2023-06-26T09:36:27;32.90;91.40
32865;DHT22;19219;44.500;11.188;2023-06-26T09:38:53;33.00;90.10
32865;DHT22;19219;44.500;11.188;2023-06-26T09:41:21;32.80;90.90
32865;DHT22;19219;44.500;11.188;2023-06-26T09:43:50;32.60;89.00
32865;DHT22;19219;44.500;11.188;2023-06-26T09:46:26;32.90;90.60
32865;DHT22;19219;44.500;11.188;2023-06-26T09:49:09;33.20;90.40
32865;DHT22;19219;44.500;11.188;2023-06-26T09:51:38;33.30;88.40
32865;DHT22;19219;44.500;11.188;2023-06-26T09:54:05;33.30;89.00
32865;DHT22;19219;44.500;11.188;2023-06-26T09:56:31;33.10;85.80
32865;DHT22;19219;44.500;11.188;2023-06-26T09:59:01;33.10;86.20
32865;DHT22;19219;44.500;11.188;2023-06-26T10:01:27;33.10;86.70
32865;DHT22;19219;44.500;11.188;2023-06-26T10:03:54;32.90;88.10
32865;DHT22;19219;44.500;11.188;2023-06-26T10:06:34;32.80;87.10
32865;DHT22;19219;44.500;11.188;2023-06-26T10:09:01;32.90;89.50
32865;DHT22;19219;44.500;11.188;2023-06-26T10:14:07;33.00;87.40
32865;DHT22;19219;44.500;11.188;2023-06-26T10:16:35;33.30;86.60
32865;DHT22;19219;44.500;11.188;2023-06-26T10:19:05;33.40;85.90
32865;DHT22;19219;44.500;11.188;2023-06-26T10:21:34;33.30;87.00
32865;DHT22;19219;44.500;11.188;2023-06-26T10:24:05;33.50;85.60
32865;DHT22;19219;44.500;11.188;2023-06-26T10:26:38;33.60;84.30
32865;DHT22;19219;44.500;11.188;2023-06-26T10:29:05;33.70;84.50
32865;DHT22;19219;44.500;11.188;2023-06-26T10:31:32;33.60;84.90
32865;DHT22;19219;44.500;11.188;2023-06-26T10:33:58;33.60;85.10
32865;DHT22;19219;44.500;11.188;2023-06-26T10:36:29;33.50;83.60
32865;DHT22;19219;44.500;11.188;2023-06-26T10:38:57;33.50;84.70
32865;DHT22;19219;44.500;11.188;2023-06-26T10:41:24;33.40;86.80
32865;DHT22;19219;44.500;11.188;2023-06-26T10:44:11;33.20;86.60
32865;DHT22;19219;44.500;11.188;2023-06-26T10:46:55;33.40;86.10
32865;DHT22;19219;44.500;11.188;2023-06-26T10:49:29;33.50;85.60
32865;DHT22;19219;44.500;11.188;2023-06-26T10:51:55;33.40;81.80
32865;DHT22;19219;44.500;11.188;2023-06-26T10:54:29;33.30;81.50
32865;DHT22;19219;44.500;11.188;2023-06-26T10:56:56;33.50;85.00
32865;DHT22;19219;44.500;11.188;2023-06-26T10:59:24;33.40;84.40
32865;DHT22;19219;44.500;11.188;2023-06-26T11:01:58;33.50;83.50
32865;DHT22;19219;44.500;11.188;2023-06-26T11:04:40;33.40;80.80
32865;DHT22;19219;44.500;11.188;2023-06-26T11:07:25;33.10;80.00
32865;DHT22;19219;44.500;11.188;2023-06-26T11:10:10;33.00;85.00
32865;DHT22;19219;44.500;11.188;2023-06-26T11:15:11;32.50;87.80
32865;DHT22;19219;44.500;11.188;2023-06-26T11:17:39;32.30;88.30
32865;DHT22;19219;44.500;11.188;2023-06-26T11:20:11;32.40;87.80
32865;DHT22;19219;44.500;11.188;2023-06-26T11:22:38;32.50;86.00
32865;DHT22;19219;44.500;11.188;2023-06-26T11:25:05;32.50;85.10
32865;DHT22;19219;44.500;11.188;2023-06-26T11:27:37;32.60;82.90
32865;DHT22;19219;44.500;11.188;2023-06-26T11:30:04;32.70;82.60
32865;DHT22;19219;44.500;11.188;2023-06-26T11:32:30;32.80;83.50
32865;DHT22;19219;44.500;11.188;2023-06-26T11:34:58;32.80;85.30
32865;DHT22;19219;44.500;11.188;2023-06-26T11:37:24;32.80;86.30
32865;DHT22;19219;44.500;11.188;2023-06-26T11:39:50;33.00;84.30
32865;DHT22;19219;44.500;11.188;2023-06-26T11:42:20;32.70;81.90
32865;DHT22;19219;44.500;11.188;2023-06-26T11:44:46;32.70;82.70
32865;DHT22;19219;44.500;11.188;2023-06-26T11:47:16;32.70;83.00
32865;DHT22;19219;44.500;11.188;2023-06-26T11:49:47;32.80;79.90
32865;DHT22;19219;44.500;11.188;2023-06-26T11:52:14;32.60;81.30
32865;DHT22;19219;44.500;11.188;2023-06-26T11:54:40;32.80;83.10
32865;DHT22;19219;44.500;11.188;2023-06-26T11:57:06;32.70;81.80
32865;DHT22;19219;44.500;11.188;2023-06-26T11:59:37;32.60;82.10
32865;DHT22;19219;44.500;11.188;2023-06-26T12:02:07;32.80;84.30
32865;DHT22;19219;44.500;11.188;2023-06-26T12:04:34;32.90;86.60
32865;DHT22;19219;44.500;11.188;2023-06-26T12:07:01;32.90;85.80
32865;DHT22;19219;44.500;11.188;2023-06-26T12:09:29;33.10;81.80
32865;DHT22;19219;44.500;11.188;2023-06-26T12:11:56;33.00;76.10
32865;DHT22;19219;44.500;11.188;2023-06-26T12:14:23;33.00;78.80
32865;DHT22;19219;44.500;11.188;2023-06-26T12:16:51;33.00;77.80
32865;DHT22;19219;44.500;11.188;2023-06-26T12:19:17;33.00;78.00
32865;DHT22;19219;44.500;11.188;2023-06-26T12:21:49;32.90;78.00
32865;DHT22;19219;44.500;11.188;2023-06-26T12:24:20;32.90;77.80
32865;DHT22;19219;44.500;11.188;2023-06-26T12:26:52;33.00;76.90
32865;DHT22;19219;44.500;11.188;2023-06-26T12:29:20;33.00;73.70
32865;DHT22;19219;44.500;11.188;2023-06-26T12:31:51;33.00;74.50
32865;DHT22;19219;44.500;11.188;2023-06-26T12:34:20;33.00;75.80
32865;DHT22;19219;44.500;11.188;2023-06-26T12:36:50;33.00;73.60
32865;DHT22;19219;44.500;11.188;2023-06-26T12:39:18;33.00;71.50
32865;DHT22;19219;44.500;11.188;2023-06-26T12:41:53;33.00;72.00
32865;DHT22;19219;44.500;11.188;2023-06-26T12:44:27;33.20;71.10
32865;DHT22;19219;44.500;11.188;2023-06-26T12:46:57;33.30;73.20
32865;DHT22;19219;44.500;11.188;2023-06-26T12:49:50;33.40;72.70
32865;DHT22;19219;44.500;11.188;2023-06-26T12:52:16;33.50;74.90
32865;DHT22;19219;44.500;11.188;2023-06-26T12:54:42;33.50;72.80
32865;DHT22;19219;44.500;11.188;2023-06-26T12:57:09;33.70;73.10
32865;DHT22;19219;44.500;11.188;2023-06-26T12:59:38;33.80;73.00
32865;DHT22;19219;44.500;11.188;2023-06-26T13:02:04;33.70;73.30
32865;DHT22;19219;44.500;11.188;2023-06-26T13:04:30;33.80;71.90
32865;DHT22;19219;44.500;11.188;2023-06-26T13:06:56;33.70;71.70
32865;DHT22;19219;44.500;11.188;2023-06-26T13:09:23;33.70;71.30
32865;DHT22;19219;44.500;11.188;2023-06-26T13:11:50;33.60;71.00
32865;DHT22;19219;44.500;11.188;2023-06-26T13:14:16;33.60;69.40
32865;DHT22;19219;44.500;11.188;2023-06-26T13:16:42;33.60;69.00
32865;DHT22;19219;44.500;11.188;2023-06-26T13:19:08;33.60;72.90
32865;DHT22;19219;44.500;11.188;2023-06-26T13:21:34;33.60;72.60
32865;DHT22;19219;44.500;11.188;2023-06-26T13:24:00;33.50;70.40
32865;DHT22;19219;44.500;11.188;2023-06-26T13:26:26;33.60;69.00
32865;DHT22;19219;44.500;11.188;2023-06-26T13:28:54;33.60;68.70
32865;DHT22;19219;44.500;11.188;2023-06-26T13:31:20;33.70;72.40
32865;DHT22;19219;44.500;11.188;2023-06-26T13:33:46;33.70;72.00
32865;DHT22;19219;44.500;11.188;2023-06-26T13:36:14;33.90;69.30
32865;DHT22;19219;44.500;11.188;2023-06-26T13:38:40;33.90;69.10
32865;DHT22;19219;44.500;11.188;2023-06-26T13:41:06;33.90;68.90
32865;DHT22;19219;44.500;11.188;2023-06-26T13:43:31;34.00;70.00
32865;DHT22;19219;44.500;11.188;2023-06-26T13:45:57;34.00;67.80
32865;DHT22;19219;44.500;11.188;2023-06-26T13:48:23;34.00;66.60
32865;DHT22;19219;44.500;11.188;2023-06-26T13:50:52;34.00;66.20
32865;DHT22;19219;44.500;11.188;2023-06-26T13:53:18;34.00;67.30
32865;DHT22;19219;44.500;11.188;2023-06-26T13:55:44;34.00;66.00
32865;DHT22;19219;44.500;11.188;2023-06-26T13:58:10;34.00;64.10
32865;DHT22;19219;44.500;11.188;2023-06-26T14:00:37;33.90;66.10
32865;DHT22;19219;44.500;11.188;2023-06-26T14:03:03;33.90;63.40
32865;DHT22;19219;44.500;11.188;2023-06-26T14:05:30;33.90;64.60
32865;DHT22;19219;44.500;11.188;2023-06-26T14:07:56;33.90;66.40
32865;DHT22;19219;44.500;11.188;2023-06-26T14:10:22;34.00;63.10
32865;DHT22;19219;44.500;11.188;2023-06-26T14:12:48;34.00;61.20
32865;DHT22;19219;44.500;11.188;2023-06-26T14:15:14;34.00;62.90
32865;DHT22;19219;44.500;11.188;2023-06-26T14:17:40;34.00;63.60
32865;DHT22;19219;44.500;11.188;2023-06-26T14:20:08;34.00;63.60
32865;DHT22;19219;44.500;11.188;2023-06-26T14:22:44;34.00;64.70
32865;DHT22;19219;44.500;11.188;2023-06-26T14:25:10;34.10;65.50
32865;DHT22;19219;44.500;11.188;2023-06-26T14:27:37;34.30;65.10
32865;DHT22;19219;44.500;11.188;2023-06-26T14:30:04;34.30;64.10
32865;DHT22;19219;44.500;11.188;2023-06-26T14:32:30;34.50;63.30
32865;DHT22;19219;44.500;11.188;2023-06-26T14:35:16;34.60;61.80
32865;DHT22;19219;44.500;11.188;2023-06-26T14:37:41;34.40;64.70
32865;DHT22;19219;44.500;11.188;2023-06-26T14:40:08;34.40;64.40
32865;DHT22;19219;44.500;11.188;2023-06-26T14:42:33;34.30;61.50
32865;DHT22;19219;44.500;11.188;2023-06-26T14:44:59;34.20;60.40
32865;DHT22;19219;44.500;11.188;2023-06-26T14:47:25;34.30;61.90
32865;DHT22;19219;44.500;11.188;2023-06-26T14:49:51;34.40;61.20
32865;DHT22;19219;44.500;11.188;2023-06-26T14:52:16;34.30;61.80
32865;DHT22;19219;44.500;11.188;2023-06-26T14:54:42;34.40;62.60
32865;DHT22;19219;44.500;11.188;2023-06-26T14:57:08;34.50;61.40
32865;DHT22;19219;44.500;11.188;2023-06-26T14:59:33;34.40;60.60
32865;DHT22;19219;44.500;11.188;2023-06-26T15:01:59;34.40;59.90
32865;DHT22;19219;44.500;11.188;2023-06-26T15:04:25;34.40;57.50
32865;DHT22;19219;44.500;11.188;2023-06-26T15:06:51;34.50;59.40
32865;DHT22;19219;44.500;11.188;2023-06-26T15:09:17;34.30;59.00
32865;DHT22;19219;44.500;11.188;2023-06-26T15:11:43;34.30;56.70
32865;DHT22;19219;44.500;11.188;2023-06-26T15:14:08;34.20;54.80
32865;DHT22;19219;44.500;11.188;2023-06-26T15:16:34;34.20;55.60
32865;DHT22;19219;44.500;11.188;2023-06-26T15:19:00;34.30;57.50
32865;DHT22;19219;44.500;11.188;2023-06-26T15:21:26;34.10;54.40
32865;DHT22;19219;44.500;11.188;2023-06-26T15:23:52;34.30;54.40
32865;DHT22;19219;44.500;11.188;2023-06-26T15:26:18;34.30;53.00